sensor_id;sensor_type;location;lat;lon;timestamp;temperature;humidity
19483;DHT22;9882;51.166;6.992;2022-11-13T00:01:18;10.00;99.90
19483;DHT22;9882;51.166;6.992;2022-11-13T00:04:05;10.00;99.90
19483;DHT22;9882;51.166;6.992;2022-11-13T00:06:53;9.90;99.90
19483;DHT22;9882;51.166;6.992;2022-11-13T00:09:45;9.90;99.90
19483;DHT22;9882;51.166;6.992;2022-11-13T00:12:32;9.90;99.90
19483;DHT22;9882;51.166;6.992;2022-11-13T00:15:19;9.90;99.90
19483;DHT22;9882;51.166;6.992;2022-11-13T00:18:06;9.80;99.90
19483;DHT22;9882;51.166;6.992;2022-11-13T00:20:52;9.90;99.90
19483;DHT22;9882;51.166;6.992;2022-11-13T00:23:39;9.80;99.90
19483;DHT22;9882;51.166;6.992;2022-11-13T00:26:29;9.90;99.90
19483;DHT22;9882;51.166;6.992;2022-11-13T00:29:16;9.80;99.90
19483;DHT22;9882;51.166;6.992;2022-11-13T00:32:03;9.80;99.90
19483;DHT22;9882;51.166;6.992;2022-11-13T00:34:50;9.80;99.90
19483;DHT22;9882;51.166;6.992;2022-11-13T00:37:37;9.80;99.90
19483;DHT22;9882;51.166;6.992;2022-11-13T00:43:14;9.80;99.90
19483;DHT22;9882;51.166;6.992;2022-11-13T00:46:01;9.70;99.90
19483;DHT22;9882;51.166;6.992;2022-11-13T00:48:48;9.70;99.90
19483;DHT22;9882;51.166;6.992;2022-11-13T00:51:35;9.70;99.90
19483;DHT22;9882;51.166;6.992;2022-11-13T00:54:22;9.70;99.90
19483;DHT22;9882;51.166;6.992;2022-11-13T00:57:10;9.70;99.90
19483;DHT22;9882;51.166;6.992;2022-11-13T01:00:00;9.70;99.90
19483;DHT22;9882;51.166;6.992;2022-11-13T01:02:47;9.70;99.90
19483;DHT22;9882;51.166;6.992;2022-11-13T01:05:35;9.70;99.90
19483;DHT22;9882;51.166;6.992;2022-11-13T01:08:22;9.60;99.90
19483;DHT22;9882;51.166;6.992;2022-11-13T01:11:10;9.70;99.90
19483;DHT22;9882;51.166;6.992;2022-11-13T01:13:57;9.60;99.90
19483;DHT22;9882;51.166;6.992;2022-11-13T01:16:46;9.60;99.90
19483;DHT22;9882;51.166;6.992;2022-11-13T01:19:33;9.60;99.90
19483;DHT22;9882;51.166;6.992;2022-11-13T01:22:20;9.60;99.90
19483;DHT22;9882;51.166;6.992;2022-11-13T01:25:07;9.50;99.90
19483;DHT22;9882;51.166;6.992;2022-11-13T01:27:58;9.60;99.90
19483;DHT22;9882;51.166;6.992;2022-11-13T01:30:45;9.60;99.90
19483;DHT22;9882;51.166;6.992;2022-11-13T01:33:34;9.50;99.90
19483;DHT22;9882;51.166;6.992;2022-11-13T01:36:25;9.50;99.90
19483;DHT22;9882;51.166;6.992;2022-11-13T01:39:13;9.50;99.90
19483;DHT22;9882;51.166;6.992;2022-11-13T01:42:03;9.50;99.90
19483;DHT22;9882;51.166;6.992;2022-11-13T01:44:52;9.50;99.90
19483;DHT22;9882;51.166;6.992;2022-11-13T01:47:40;9.40;99.90
19483;DHT22;9882;51.166;6.992;2022-11-13T01:50:28;9.50;99.90
19483;DHT22;9882;51.166;6.992;2022-11-13T01:53:16;9.50;99.90
19483;DHT22;9882;51.166;6.992;2022-11-13T01:56:04;9.50;99.90
19483;DHT22;9882;51.166;6.992;2022-11-13T01:58:54;9.50;99.90
19483;DHT22;9882;51.166;6.992;2022-11-13T02:01:43;9.40;99.90
19483;DHT22;9882;51.166;6.992;2022-11-13T02:04:31;9.40;99.90
19483;DHT22;9882;51.166;6.992;2022-11-13T02:07:20;9.40;99.90
19483;DHT22;9882;51.166;6.992;2022-11-13T02:10:09;9.40;99.90
19483;DHT22;9882;51.166;6.992;2022-11-13T02:12:57;9.40;99.90
19483;DHT22;9882;51.166;6.992;2022-11-13T02:15:44;9.50;99.90
19483;DHT22;9882;51.166;6.992;2022-11-13T02:18:34;9.40;99.90
19483;DHT22;9882;51.166;6.992;2022-11-13T02:21:31;9.40;99.90
19483;DHT22;9882;51.166;6.992;2022-11-13T02:24:26;9.40;99.90
19483;DHT22;9882;51.166;6.992;2022-11-13T02:27:20;9.50;99.90
19483;DHT22;9882;51.166;6.992;2022-11-13T02:30:12;9.40;99.90
19483;DHT22;9882;51.166;6.992;2022-11-13T02:33:01;9.40;99.90
19483;DHT22;9882;51.166;6.992;2022-11-13T02:35:48;9.30;99.90
19483;DHT22;9882;51.166;6.992;2022-11-13T02:38:36;9.30;99.90
19483;DHT22;9882;51.166;6.992;2022-11-13T02:41:26;9.30;99.90
19483;DHT22;9882;51.166;6.992;2022-11-13T02:44:13;9.30;99.90
19483;DHT22;9882;51.166;6.992;2022-11-13T02:47:00;9.20;99.90
19483;DHT22;9882;51.166;6.992;2022-11-13T02:49:47;9.20;99.90
19483;DHT22;9882;51.166;6.992;2022-11-13T02:52:34;9.20;99.90
19483;DHT22;9882;51.166;6.992;2022-11-13T02:55:21;9.20;99.90
19483;DHT22;9882;51.166;6.992;2022-11-13T02:58:10;9.20;99.90
19483;DHT22;9882;51.166;6.992;2022-11-13T03:00:57;9.20;99.90
19483;DHT22;9882;51.166;6.992;2022-11-13T03:03:47;9.20;99.90
19483;DHT22;9882;51.166;6.992;2022-11-13T03:06:42;9.20;99.90
19483;DHT22;9882;51.166;6.992;2022-11-13T03:09:31;9.10;99.90
19483;DHT22;9882;51.166;6.992;2022-11-13T03:12:18;9.10;99.90
19483;DHT22;9882;51.166;6.992;2022-11-13T03:15:08;9.10;99.90
19483;DHT22;9882;51.166;6.992;2022-11-13T03:17:55;9.10;99.90
19483;DHT22;9882;51.166;6.992;2022-11-13T03:20:42;9.10;99.90
19483;DHT22;9882;51.166;6.992;2022-11-13T03:23:30;9.10;99.90
19483;DHT22;9882;51.166;6.992;2022-11-13T03:26:17;9.10;99.90
19483;DHT22;9882;51.166;6.992;2022-11-13T03:29:04;9.00;99.90
19483;DHT22;9882;51.166;6.992;2022-11-13T03:31:53;9.00;99.90
19483;DHT22;9882;51.166;6.992;2022-11-13T03:34:40;9.00;99.90
19483;DHT22;9882;51.166;6.992;2022-11-13T03:37:30;8.90;99.90
19483;DHT22;9882;51.166;6.992;2022-11-13T03:40:17;8.90;99.90
19483;DHT22;9882;51.166;6.992;2022-11-13T03:43:05;8.90;99.90
19483;DHT22;9882;51.166;6.992;2022-11-13T03:45:52;8.90;99.90
19483;DHT22;9882;51.166;6.992;2022-11-13T03:48:40;8.90;99.90
19483;DHT22;9882;51.166;6.992;2022-11-13T03:51:28;8.90;99.90
19483;DHT22;9882;51.166;6.992;2022-11-13T03:54:15;8.80;99.90
19483;DHT22;9882;51.166;6.992;2022-11-13T03:57:03;8.80;99.90
19483;DHT22;9882;51.166;6.992;2022-11-13T03:59:51;8.80;99.90
19483;DHT22;9882;51.166;6.992;2022-11-13T04:02:38;8.80;99.90
19483;DHT22;9882;51.166;6.992;2022-11-13T04:05:27;8.80;99.90
19483;DHT22;9882;51.166;6.992;2022-11-13T04:08:14;8.90;99.90
19483;DHT22;9882;51.166;6.992;2022-11-13T04:11:06;8.70;99.90
19483;DHT22;9882;51.166;6.992;2022-11-13T04:13:53;8.70;99.90
19483;DHT22;9882;51.166;6.992;2022-11-13T04:16:40;8.70;99.90
19483;DHT22;9882;51.166;6.992;2022-11-13T04:19:30;8.70;99.90
19483;DHT22;9882;51.166;6.992;2022-11-13T04:22:19;8.70;99.90
19483;DHT22;9882;51.166;6.992;2022-11-13T04:25:07;8.70;99.90
19483;DHT22;9882;51.166;6.992;2022-11-13T04:27:54;8.70;99.90
19483;DHT22;9882;51.166;6.992;2022-11-13T04:30:41;8.60;99.90
19483;DHT22;9882;51.166;6.992;2022-11-13T04:33:28;8.60;99.90
19483;DHT22;9882;51.166;6.992;2022-11-13T04:36:15;8.60;99.90
19483;DHT22;9882;51.166;6.992;2022-11-13T04:39:03;8.70;99.90
19483;DHT22;9882;51.166;6.992;2022-11-13T04:41:50;8.60;99.90
19483;DHT22;9882;51.166;6.992;2022-11-13T04:44:55;8.60;99.90
19483;DHT22;9882;51.166;6.992;2022-11-13T04:47:43;8.50;99.90
19483;DHT22;9882;51.166;6.992;2022-11-13T04:50:30;8.50;99.90
19483;DHT22;9882;51.166;6.992;2022-11-13T04:53:17;8.50;99.90
19483;DHT22;9882;51.166;6.992;2022-11-13T04:56:06;8.50;99.90
19483;DHT22;9882;51.166;6.992;2022-11-13T04:58:53;8.50;99.90
19483;DHT22;9882;51.166;6.992;2022-11-13T05:01:40;8.50;99.90
19483;DHT22;9882;51.166;6.992;2022-11-13T05:04:27;8.40;99.90
19483;DHT22;9882;51.166;6.992;2022-11-13T05:07:14;8.40;99.90
19483;DHT22;9882;51.166;6.992;2022-11-13T05:10:02;8.40;99.90
19483;DHT22;9882;51.166;6.992;2022-11-13T05:12:51;8.40;99.90
19483;DHT22;9882;51.166;6.992;2022-11-13T05:15:41;8.40;99.90
19483;DHT22;9882;51.166;6.992;2022-11-13T05:18:28;8.40;99.90
19483;DHT22;9882;51.166;6.992;2022-11-13T05:21:16;8.40;99.90
19483;DHT22;9882;51.166;6.992;2022-11-13T05:24:04;8.40;99.90
19483;DHT22;9882;51.166;6.992;2022-11-13T05:26:51;8.30;99.90
19483;DHT22;9882;51.166;6.992;2022-11-13T05:29:40;8.30;99.90
19483;DHT22;9882;51.166;6.992;2022-11-13T05:32:27;8.40;99.90
19483;DHT22;9882;51.166;6.992;2022-11-13T05:35:15;8.30;99.90
19483;DHT22;9882;51.166;6.992;2022-11-13T05:38:02;8.30;99.90
19483;DHT22;9882;51.166;6.992;2022-11-13T05:40:50;8.30;99.90
19483;DHT22;9882;51.166;6.992;2022-11-13T05:43:38;8.30;99.90
19483;DHT22;9882;51.166;6.992;2022-11-13T05:46:28;8.20;99.90
19483;DHT22;9882;51.166;6.992;2022-11-13T05:49:15;8.20;99.90
19483;DHT22;9882;51.166;6.992;2022-11-13T05:52:02;8.20;99.90
19483;DHT22;9882;51.166;6.992;2022-11-13T05:54:49;8.20;99.90
19483;DHT22;9882;51.166;6.992;2022-11-13T05:57:37;8.30;99.90
19483;DHT22;9882;51.166;6.992;2022-11-13T06:00:24;8.20;99.90
19483;DHT22;9882;51.166;6.992;2022-11-13T06:03:12;8.20;99.90
19483;DHT22;9882;51.166;6.992;2022-11-13T06:06:00;8.10;99.90
19483;DHT22;9882;51.166;6.992;2022-11-13T06:08:49;8.10;99.90
19483;DHT22;9882;51.166;6.992;2022-11-13T06:11:36;8.10;99.90
19483;DHT22;9882;51.166;6.992;2022-11-13T06:14:23;8.00;99.90
19483;DHT22;9882;51.166;6.992;2022-11-13T06:17:11;8.00;99.90
19483;DHT22;9882;51.166;6.992;2022-11-13T06:19:59;8.00;99.90
19483;DHT22;9882;51.166;6.992;2022-11-13T06:22:46;8.00;99.90
19483;DHT22;9882;51.166;6.992;2022-11-13T06:25:34;8.00;99.90
19483;DHT22;9882;51.166;6.992;2022-11-13T06:28:21;8.00;99.90
19483;DHT22;9882;51.166;6.992;2022-11-13T06:31:10;8.00;99.90
19483;DHT22;9882;51.166;6.992;2022-11-13T06:33:58;8.00;99.90
19483;DHT22;9882;51.166;6.992;2022-11-13T06:36:47;7.90;99.90
19483;DHT22;9882;51.166;6.992;2022-11-13T06:39:34;7.90;99.90
19483;DHT22;9882;51.166;6.992;2022-11-13T06:42:21;7.90;99.90
19483;DHT22;9882;51.166;6.992;2022-11-13T06:45:09;7.90;99.90
19483;DHT22;9882;51.166;6.992;2022-11-13T06:47:56;7.90;99.90
19483;DHT22;9882;51.166;6.992;2022-11-13T06:50:43;7.90;99.90
19483;DHT22;9882;51.166;6.992;2022-11-13T06:53:34;7.80;99.90
19483;DHT22;9882;51.166;6.992;2022-11-13T06:56:21;7.80;99.90
19483;DHT22;9882;51.166;6.992;2022-11-13T06:59:08;7.90;99.90
19483;DHT22;9882;51.166;6.992;2022-11-13T07:01:55;7.80;99.90
19483;DHT22;9882;51.166;6.992;2022-11-13T07:04:42;7.80;99.90
19483;DHT22;9882;51.166;6.992;2022-11-13T07:07:51;7.80;99.90
19483;DHT22;9882;51.166;6.992;2022-11-13T07:11:05;7.80;99.90
19483;DHT22;9882;51.166;6.992;2022-11-13T07:14:03;7.80;99.90
19483;DHT22;9882;51.166;6.992;2022-11-13T07:17:03;7.80;99.90
19483;DHT22;9882;51.166;6.992;2022-11-13T07:19:53;7.80;99.90
19483;DHT22;9882;51.166;6.992;2022-11-13T07:27:34;7.80;99.90
19483;DHT22;9882;51.166;6.992;2022-11-13T07:30:22;7.70;99.90
19483;DHT22;9882;51.166;6.992;2022-11-13T07:33:10;7.70;99.90
19483;DHT22;9882;51.166;6.992;2022-11-13T07:44:13;7.70;99.90
19483;DHT22;9882;51.166;6.992;2022-11-13T07:47:12;7.70;99.90
19483;DHT22;9882;51.166;6.992;2022-11-13T07:50:26;7.70;99.90
19483;DHT22;9882;51.166;6.992;2022-11-13T07:53:20;7.70;99.90
19483;DHT22;9882;51.166;6.992;2022-11-13T07:56:34;7.60;99.90
19483;DHT22;9882;51.166;6.992;2022-11-13T07:59:23;7.70;99.90
19483;DHT22;9882;51.166;6.992;2022-11-13T08:02:16;7.70;99.90
19483;DHT22;9882;51.166;6.992;2022-11-13T08:05:09;7.70;99.90
19483;DHT22;9882;51.166;6.992;2022-11-13T08:08:35;7.70;99.90
19483;DHT22;9882;51.166;6.992;2022-11-13T08:11:32;7.60;99.90
19483;DHT22;9882;51.166;6.992;2022-11-13T08:14:30;7.60;99.90
19483;DHT22;9882;51.166;6.992;2022-11-13T08:17:51;7.60;99.90
19483;DHT22;9882;51.166;6.992;2022-11-13T08:21:47;7.60;99.90
19483;DHT22;9882;51.166;6.992;2022-11-13T08:24:35;7.60;99.90
19483;DHT22;9882;51.166;6.992;2022-11-13T08:27:24;7.60;99.90
19483;DHT22;9882;51.166;6.992;2022-11-13T08:34:33;7.70;99.90
19483;DHT22;9882;51.166;6.992;2022-11-13T08:37:22;7.60;99.90
19483;DHT22;9882;51.166;6.992;2022-11-13T08:40:20;7.50;99.90
19483;DHT22;9882;51.166;6.992;2022-11-13T08:43:07;7.40;99.90
19483;DHT22;9882;51.166;6.992;2022-11-13T08:45:54;7.50;99.90
19483;DHT22;9882;51.166;6.992;2022-11-13T08:48:41;7.50;99.90
19483;DHT22;9882;51.166;6.992;2022-11-13T08:51:30;7.50;99.90
19483;DHT22;9882;51.166;6.992;2022-11-13T08:54:17;7.60;99.90
19483;DHT22;9882;51.166;6.992;2022-11-13T08:57:05;7.80;99.90
19483;DHT22;9882;51.166;6.992;2022-11-13T08:59:52;7.90;99.90
19483;DHT22;9882;51.166;6.992;2022-11-13T09:02:39;8.00;99.90
19483;DHT22;9882;51.166;6.992;2022-11-13T09:05:26;8.10;99.90
19483;DHT22;9882;51.166;6.992;2022-11-13T09:08:14;8.10;99.90
19483;DHT22;9882;51.166;6.992;2022-11-13T09:11:02;8.10;99.90
19483;DHT22;9882;51.166;6.992;2022-11-13T09:13:50;8.20;99.90
19483;DHT22;9882;51.166;6.992;2022-11-13T09:16:38;8.30;99.90
19483;DHT22;9882;51.166;6.992;2022-11-13T09:19:27;8.60;99.90
19483;DHT22;9882;51.166;6.992;2022-11-13T09:22:14;8.60;99.90
19483;DHT22;9882;51.166;6.992;2022-11-13T09:25:02;8.60;99.90
19483;DHT22;9882;51.166;6.992;2022-11-13T09:27:53;8.70;99.90
19483;DHT22;9882;51.166;6.992;2022-11-13T09:30:41;8.90;99.90
19483;DHT22;9882;51.166;6.992;2022-11-13T09:33:28;8.90;99.90
19483;DHT22;9882;51.166;6.992;2022-11-13T09:36:15;9.00;99.90
19483;DHT22;9882;51.166;6.992;2022-11-13T09:39:02;9.10;99.90
19483;DHT22;9882;51.166;6.992;2022-11-13T09:41:53;9.30;99.90
19483;DHT22;9882;51.166;6.992;2022-11-13T09:44:45;9.40;99.90
19483;DHT22;9882;51.166;6.992;2022-11-13T09:47:37;9.50;99.90
19483;DHT22;9882;51.166;6.992;2022-11-13T09:50:26;9.50;99.90
19483;DHT22;9882;51.166;6.992;2022-11-13T09:53:15;9.50;99.90
19483;DHT22;9882;51.166;6.992;2022-11-13T09:59:18;9.80;99.90
19483;DHT22;9882;51.166;6.992;2022-11-13T10:02:16;9.90;99.90
19483;DHT22;9882;51.166;6.992;2022-11-13T10:05:13;10.00;99.90
19483;DHT22;9882;51.166;6.992;2022-11-13T10:08:05;10.00;99.90
19483;DHT22;9882;51.166;6.992;2022-11-13T10:10:59;10.30;99.90
19483;DHT22;9882;51.166;6.992;2022-11-13T10:13:51;10.50;99.90
19483;DHT22;9882;51.166;6.992;2022-11-13T10:16:44;10.50;99.90
19483;DHT22;9882;51.166;6.992;2022-11-13T10:19:39;10.40;99.90
19483;DHT22;9882;51.166;6.992;2022-11-13T10:22:33;10.30;99.90
19483;DHT22;9882;51.166;6.992;2022-11-13T10:25:24;10.30;99.90
19483;DHT22;9882;51.166;6.992;2022-11-13T10:28:15;10.60;99.90
19483;DHT22;9882;51.166;6.992;2022-11-13T10:31:22;10.90;99.90
19483;DHT22;9882;51.166;6.992;2022-11-13T10:34:11;11.00;99.90
19483;DHT22;9882;51.166;6.992;2022-11-13T10:37:16;11.10;99.90
19483;DHT22;9882;51.166;6.992;2022-11-13T10:40:06;11.40;99.90
19483;DHT22;9882;51.166;6.992;2022-11-13T10:42:53;11.30;99.90
19483;DHT22;9882;51.166;6.992;2022-11-13T10:45:54;11.60;99.90
19483;DHT22;9882;51.166;6.992;2022-11-13T10:48:42;11.80;99.90
19483;DHT22;9882;51.166;6.992;2022-11-13T10:51:31;11.90;99.90
19483;DHT22;9882;51.166;6.992;2022-11-13T10:54:22;11.80;99.90
19483;DHT22;9882;51.166;6.992;2022-11-13T10:57:22;12.10;99.90
19483;DHT22;9882;51.166;6.992;2022-11-13T11:00:22;12.00;99.90
19483;DHT22;9882;51.166;6.992;2022-11-13T11:03:14;12.20;99.90
19483;DHT22;9882;51.166;6.992;2022-11-13T11:06:03;12.30;99.90
19483;DHT22;9882;51.166;6.992;2022-11-13T11:08:52;12.30;99.90
19483;DHT22;9882;51.166;6.992;2022-11-13T11:11:39;12.40;99.90
19483;DHT22;9882;51.166;6.992;2022-11-13T11:14:58;12.40;99.90
19483;DHT22;9882;51.166;6.992;2022-11-13T11:17:49;12.50;99.90
19483;DHT22;9882;51.166;6.992;2022-11-13T11:20:42;12.70;99.90
19483;DHT22;9882;51.166;6.992;2022-11-13T11:23:36;12.90;99.90
19483;DHT22;9882;51.166;6.992;2022-11-13T11:26:30;12.80;99.90
19483;DHT22;9882;51.166;6.992;2022-11-13T11:29:25;12.90;99.90
19483;DHT22;9882;51.166;6.992;2022-11-13T11:32:21;12.90;99.90
19483;DHT22;9882;51.166;6.992;2022-11-13T11:35:14;13.20;99.90
19483;DHT22;9882;51.166;6.992;2022-11-13T11:38:07;13.40;99.90
19483;DHT22;9882;51.166;6.992;2022-11-13T11:41:01;13.70;99.90
19483;DHT22;9882;51.166;6.992;2022-11-13T11:43:55;13.70;99.90
19483;DHT22;9882;51.166;6.992;2022-11-13T11:46:47;13.80;99.90
19483;DHT22;9882;51.166;6.992;2022-11-13T11:49:34;14.10;99.90
19483;DHT22;9882;51.166;6.992;2022-11-13T11:52:40;14.30;99.90
19483;DHT22;9882;51.166;6.992;2022-11-13T11:55:39;14.20;99.90
19483;DHT22;9882;51.166;6.992;2022-11-13T11:58:59;14.20;99.90
19483;DHT22;9882;51.166;6.992;2022-11-13T12:02:15;14.30;99.90
19483;DHT22;9882;51.166;6.992;2022-11-13T12:26:00;14.30;99.90
19483;DHT22;9882;51.166;6.992;2022-11-13T12:28:53;14.30;99.90
19483;DHT22;9882;51.166;6.992;2022-11-13T12:31:50;14.10;99.90
19483;DHT22;9882;51.166;6.992;2022-11-13T12:34:43;13.90;99.90
19483;DHT22;9882;51.166;6.992;2022-11-13T12:37:38;14.20;99.90
19483;DHT22;9882;51.166;6.992;2022-11-13T12:40:33;14.50;99.90
19483;DHT22;9882;51.166;6.992;2022-11-13T12:46:32;14.50;99.90
19483;DHT22;9882;51.166;6.992;2022-11-13T12:49:30;14.70;99.90
19483;DHT22;9882;51.166;6.992;2022-11-13T12:52:20;14.50;99.90
19483;DHT22;9882;51.166;6.992;2022-11-13T13:13:26;15.10;99.90
19483;DHT22;9882;51.166;6.992;2022-11-13T13:16:23;15.20;99.90
19483;DHT22;9882;51.166;6.992;2022-11-13T13:19:24;15.30;99.90
19483;DHT22;9882;51.166;6.992;2022-11-13T13:22:24;15.10;99.90
19483;DHT22;9882;51.166;6.992;2022-11-13T13:25:23;15.50;99.90
19483;DHT22;9882;51.166;6.992;2022-11-13T13:28:20;15.20;99.90
19483;DHT22;9882;51.166;6.992;2022-11-13T13:31:22;15.30;99.90
19483;DHT22;9882;51.166;6.992;2022-11-13T13:34:24;15.40;99.90
19483;DHT22;9882;51.166;6.992;2022-11-13T13:37:22;15.40;99.90
19483;DHT22;9882;51.166;6.992;2022-11-13T13:40:19;15.40;99.90
19483;DHT22;9882;51.166;6.992;2022-11-13T13:43:21;15.50;99.90
19483;DHT22;9882;51.166;6.992;2022-11-13T13:46:14;15.50;99.90
19483;DHT22;9882;51.166;6.992;2022-11-13T13:49:13;15.50;99.90
19483;DHT22;9882;51.166;6.992;2022-11-13T13:52:01;15.50;99.90
19483;DHT22;9882;51.166;6.992;2022-11-13T13:54:50;15.50;99.90
19483;DHT22;9882;51.166;6.992;2022-11-13T13:57:39;15.50;99.90
19483;DHT22;9882;51.166;6.992;2022-11-13T14:00:29;15.40;99.90
19483;DHT22;9882;51.166;6.992;2022-11-13T14:03:18;15.40;99.90
19483;DHT22;9882;51.166;6.992;2022-11-13T14:06:18;15.70;99.90
19483;DHT22;9882;51.166;6.992;2022-11-13T14:09:09;16.30;99.90
19483;DHT22;9882;51.166;6.992;2022-11-13T14:12:03;16.70;99.90
19483;DHT22;9882;51.166;6.992;2022-11-13T14:14:53;16.70;99.90
19483;DHT22;9882;51.166;6.992;2022-11-13T14:17:42;17.10;99.90
19483;DHT22;9882;51.166;6.992;2022-11-13T14:20:36;17.30;99.90
19483;DHT22;9882;51.166;6.992;2022-11-13T14:23:27;17.30;99.90
19483;DHT22;9882;51.166;6.992;2022-11-13T14:26:14;17.40;99.90
19483;DHT22;9882;51.166;6.992;2022-11-13T14:29:02;17.10;99.90
19483;DHT22;9882;51.166;6.992;2022-11-13T14:31:50;16.80;99.90
19483;DHT22;9882;51.166;6.992;2022-11-13T14:34:42;16.40;99.90
19483;DHT22;9882;51.166;6.992;2022-11-13T14:37:32;16.20;99.90
19483;DHT22;9882;51.166;6.992;2022-11-13T14:40:21;15.60;99.90
19483;DHT22;9882;51.166;6.992;2022-11-13T14:43:15;15.60;99.90
19483;DHT22;9882;51.166;6.992;2022-11-13T14:46:05;15.50;99.90
19483;DHT22;9882;51.166;6.992;2022-11-13T14:49:11;15.80;99.90
19483;DHT22;9882;51.166;6.992;2022-11-13T14:52:01;15.50;99.90
19483;DHT22;9882;51.166;6.992;2022-11-13T14:55:00;15.30;99.90
19483;DHT22;9882;51.166;6.992;2022-11-13T14:58:02;14.90;99.90
19483;DHT22;9882;51.166;6.992;2022-11-13T15:00:50;14.60;99.90
19483;DHT22;9882;51.166;6.992;2022-11-13T15:03:37;14.30;99.90
19483;DHT22;9882;51.166;6.992;2022-11-13T15:06:25;13.90;99.90
19483;DHT22;9882;51.166;6.992;2022-11-13T15:09:15;13.70;99.90
19483;DHT22;9882;51.166;6.992;2022-11-13T15:12:03;13.60;99.90
19483;DHT22;9882;51.166;6.992;2022-11-13T15:14:50;13.30;99.90
19483;DHT22;9882;51.166;6.992;2022-11-13T15:17:37;13.00;99.90
19483;DHT22;9882;51.166;6.992;2022-11-13T15:20:25;12.80;99.90
19483;DHT22;9882;51.166;6.992;2022-11-13T15:23:16;12.80;99.90
19483;DHT22;9882;51.166;6.992;2022-11-13T15:26:05;12.50;99.90
19483;DHT22;9882;51.166;6.992;2022-11-13T15:28:52;12.30;99.90
19483;DHT22;9882;51.166;6.992;2022-11-13T15:31:40;12.20;99.90
19483;DHT22;9882;51.166;6.992;2022-11-13T15:34:27;12.20;99.90
19483;DHT22;9882;51.166;6.992;2022-11-13T15:37:15;12.10;99.90
19483;DHT22;9882;51.166;6.992;2022-11-13T15:40:02;11.90;99.90
19483;DHT22;9882;51.166;6.992;2022-11-13T15:42:51;11.90;99.90
19483;DHT22;9882;51.166;6.992;2022-11-13T15:45:38;11.70;99.90
19483;DHT22;9882;51.166;6.992;2022-11-13T15:48:28;11.70;99.90
19483;DHT22;9882;51.166;6.992;2022-11-13T15:51:18;11.70;99.90
19483;DHT22;9882;51.166;6.992;2022-11-13T15:54:13;11.60;99.90
19483;DHT22;9882;51.166;6.992;2022-11-13T15:57:01;11.50;99.90
19483;DHT22;9882;51.166;6.992;2022-11-13T15:59:50;11.40;99.90
19483;DHT22;9882;51.166;6.992;2022-11-13T16:02:37;11.50;99.90
19483;DHT22;9882;51.166;6.992;2022-11-13T16:05:25;11.50;99.90
19483;DHT22;9882;51.166;6.992;2022-11-13T16:08:14;11.40;99.90
19483;DHT22;9882;51.166;6.992;2022-11-13T16:11:01;11.50;99.90
19483;DHT22;9882;51.166;6.992;2022-11-13T16:13:48;11.60;99.90
19483;DHT22;9882;51.166;6.992;2022-11-13T16:16:38;11.60;99.90
19483;DHT22;9882;51.166;6.992;2022-11-13T16:19:26;11.60;99.90
19483;DHT22;9882;51.166;6.992;2022-11-13T16:22:17;11.50;99.90
19483;DHT22;9882;51.166;6.992;2022-11-13T16:25:05;11.50;99.90
19483;DHT22;9882;51.166;6.992;2022-11-13T16:27:53;11.50;99.90
19483;DHT22;9882;51.166;6.992;2022-11-13T16:30:39;11.50;99.90
19483;DHT22;9882;51.166;6.992;2022-11-13T16:33:28;11.40;99.90
19483;DHT22;9882;51.166;6.992;2022-11-13T16:36:16;11.30;99.90
19483;DHT22;9882;51.166;6.992;2022-11-13T16:39:04;11.30;99.90
19483;DHT22;9882;51.166;6.992;2022-11-13T16:41:51;11.10;99.90
19483;DHT22;9882;51.166;6.992;2022-11-13T16:44:39;11.10;99.90
19483;DHT22;9882;51.166;6.992;2022-11-13T16:47:26;11.10;99.90
19483;DHT22;9882;51.166;6.992;2022-11-13T16:50:18;11.10;99.90
19483;DHT22;9882;51.166;6.992;2022-11-13T16:53:05;11.10;99.90
19483;DHT22;9882;51.166;6.992;2022-11-13T16:55:52;11.10;99.90
19483;DHT22;9882;51.166;6.992;2022-11-13T16:58:40;11.00;99.90
19483;DHT22;9882;51.166;6.992;2022-11-13T17:01:27;11.00;99.90
19483;DHT22;9882;51.166;6.992;2022-11-13T17:04:14;10.90;99.90
19483;DHT22;9882;51.166;6.992;2022-11-13T17:07:02;10.90;99.90
19483;DHT22;9882;51.166;6.992;2022-11-13T17:09:49;10.70;99.90
19483;DHT22;9882;51.166;6.992;2022-11-13T17:12:48;10.80;99.90
19483;DHT22;9882;51.166;6.992;2022-11-13T17:15:35;10.70;99.90
19483;DHT22;9882;51.166;6.992;2022-11-13T17:18:22;10.70;99.90
19483;DHT22;9882;51.166;6.992;2022-11-13T17:21:09;10.70;99.90
19483;DHT22;9882;51.166;6.992;2022-11-13T17:23:59;10.70;99.90
19483;DHT22;9882;51.166;6.992;2022-11-13T17:26:47;10.60;99.90
19483;DHT22;9882;51.166;6.992;2022-11-13T17:29:34;10.60;99.90
19483;DHT22;9882;51.166;6.992;2022-11-13T17:32:21;10.70;99.90
19483;DHT22;9882;51.166;6.992;2022-11-13T17:35:10;10.60;99.90
19483;DHT22;9882;51.166;6.992;2022-11-13T17:37:57;10.60;99.90
19483;DHT22;9882;51.166;6.992;2022-11-13T17:40:45;10.50;99.90
19483;DHT22;9882;51.166;6.992;2022-11-13T17:43:33;10.60;99.90
19483;DHT22;9882;51.166;6.992;2022-11-13T17:46:21;10.50;99.90
19483;DHT22;9882;51.166;6.992;2022-11-13T17:49:08;10.50;99.90
19483;DHT22;9882;51.166;6.992;2022-11-13T17:51:55;10.40;99.90
19483;DHT22;9882;51.166;6.992;2022-11-13T17:54:42;10.40;99.90
19483;DHT22;9882;51.166;6.992;2022-11-13T17:57:31;10.40;99.90
19483;DHT22;9882;51.166;6.992;2022-11-13T18:00:19;10.40;99.90
19483;DHT22;9882;51.166;6.992;2022-11-13T18:03:06;10.30;99.90
19483;DHT22;9882;51.166;6.992;2022-11-13T18:05:52;10.30;99.90
19483;DHT22;9882;51.166;6.992;2022-11-13T18:08:41;10.20;99.90
19483;DHT22;9882;51.166;6.992;2022-11-13T18:11:28;10.20;99.90
19483;DHT22;9882;51.166;6.992;2022-11-13T18:14:17;10.20;99.90
19483;DHT22;9882;51.166;6.992;2022-11-13T18:17:05;10.30;99.90
19483;DHT22;9882;51.166;6.992;2022-11-13T18:19:52;10.30;99.90
19483;DHT22;9882;51.166;6.992;2022-11-13T18:22:43;10.20;99.90
19483;DHT22;9882;51.166;6.992;2022-11-13T18:25:30;10.30;99.90
19483;DHT22;9882;51.166;6.992;2022-11-13T18:28:20;10.20;99.90
19483;DHT22;9882;51.166;6.992;2022-11-13T18:31:09;10.10;99.90
19483;DHT22;9882;51.166;6.992;2022-11-13T18:33:57;10.20;99.90
19483;DHT22;9882;51.166;6.992;2022-11-13T18:36:46;10.10;99.90
19483;DHT22;9882;51.166;6.992;2022-11-13T18:39:33;10.10;99.90
19483;DHT22;9882;51.166;6.992;2022-11-13T18:42:20;10.10;99.90
19483;DHT22;9882;51.166;6.992;2022-11-13T18:45:08;10.00;99.90
19483;DHT22;9882;51.166;6.992;2022-11-13T18:47:57;10.00;99.90
19483;DHT22;9882;51.166;6.992;2022-11-13T18:50:53;9.90;99.90
19483;DHT22;9882;51.166;6.992;2022-11-13T18:53:41;10.00;99.90
19483;DHT22;9882;51.166;6.992;2022-11-13T18:56:31;9.90;99.90
19483;DHT22;9882;51.166;6.992;2022-11-13T18:59:17;10.00;99.90
19483;DHT22;9882;51.166;6.992;2022-11-13T19:02:05;10.00;99.90
19483;DHT22;9882;51.166;6.992;2022-11-13T19:04:53;10.00;99.90
19483;DHT22;9882;51.166;6.992;2022-11-13T19:07:40;10.00;99.90
19483;DHT22;9882;51.166;6.992;2022-11-13T19:10:28;10.00;99.90
19483;DHT22;9882;51.166;6.992;2022-11-13T19:13:15;9.90;99.90
19483;DHT22;9882;51.166;6.992;2022-11-13T19:16:03;9.90;99.90
19483;DHT22;9882;51.166;6.992;2022-11-13T19:18:52;9.90;99.90
19483;DHT22;9882;51.166;6.992;2022-11-13T19:21:41;9.90;99.90
19483;DHT22;9882;51.166;6.992;2022-11-13T19:24:28;9.80;99.90
19483;DHT22;9882;51.166;6.992;2022-11-13T19:27:15;9.90;99.90
19483;DHT22;9882;51.166;6.992;2022-11-13T19:30:02;9.80;99.90